Terminal Aerodrome Forecast
Issued by NWS Cleveland, OH

Home | Current Version | Previous Version | Text Only | Print | Product List | Glossary Off
Versions: 1 2 3 4 5 6 7 8 9 10 11 12 13 14 15 16

000
FTUS41 KCLE 210755 AAA
TAFYNG
TAF AMD
KYNG 210755Z 2108/2206 00000KT P6SM FEW250
      TEMPO 2108/2109 4SM BR
     FM210900 00000KT 4SM BR SCT250
      TEMPO 2109/2110 2SM BR
     FM211000 00000KT 2SM BR SCT200
      TEMPO 2110/2113 3/4SM BR BKN003
     FM211400 00000KT 5SM BR SCT006
     FM211500 15003KT P6SM SCT250
     FM211800 14004KT P6SM SCT045
     FM220000 07003KT P6SM FEW250=

USA.gov is the U.S. government's official web portal to all federal, state and local government web resources and services.